METAR Formatted Surface Weather Observation
Issued by NWS

Home | Current Version | Previous Version | Text Only | Print | Product List | Glossary On
Versions: 1 2 3 4 5 6 7 8 9 10 11 12 13 14
000
SAUS45 KPSR 201957
MTRFHU
METAR KFHU 201956Z AUTO 11003KT 10SM CLR 14/M04 A3012 RMK AO2 SLP183
T01391044 $



USA.gov is the U.S. government's official web portal to all federal, state and local government web resources and services.